N525BG KLAX-KSFO
Flight info
| Callsign | N525BG |
|---|---|
| Flight time | 0h 54m |
| Altitude | 36000 |
| Route | SUMMR2 STOKD SERFR SERFR4 SIDBY |
| Aircraft | C750/M-VGDW/C |
Departure
| Time | 2026-04-22 22:47 |
|---|---|
| Airport | Los Angeles International Airport (KLAX) |
Arrival
| Time | 2026-04-22 23:41 |
|---|---|
| Airport | San Francisco International Airport (KSFO) |
| Time | Latitude | Longitude | Altitude | Speed | Heading |
|---|---|---|---|---|---|
| 2026-04-22 22:28 | 33.93392 | -118.39569 | 122 ft | 0 kts | 225° |
| 2026-04-22 22:40 | 33.93393 | -118.39569 | 122 ft | 0 kts | 225° |
| 2026-04-22 22:40 | 33.93400 | -118.39561 | 121 ft | 0 kts | 213° |
| 2026-04-22 22:41 | 33.93396 | -118.39554 | 121 ft | 2 kts | 109° |
| 2026-04-22 22:41 | 33.93413 | -118.39491 | 122 ft | 10 kts | 79° |
| 2026-04-22 22:41 | 33.93427 | -118.39413 | 120 ft | 9 kts | 73° |
| 2026-04-22 22:41 | 33.93461 | -118.39357 | 122 ft | 8 kts | 50° |
| 2026-04-22 22:42 | 33.93493 | -118.39311 | 122 ft | 7 kts | 50° |
| 2026-04-22 22:42 | 33.93513 | -118.39266 | 121 ft | 6 kts | 81° |
| 2026-04-22 22:42 | 33.93520 | -118.39209 | 122 ft | 10 kts | 81° |
| 2026-04-22 22:42 | 33.93534 | -118.39093 | 122 ft | 16 kts | 82° |
| 2026-04-22 22:43 | 33.93546 | -118.38966 | 122 ft | 15 kts | 84° |
| 2026-04-22 22:43 | 33.93557 | -118.38850 | 122 ft | 13 kts | 82° |
| 2026-04-22 22:43 | 33.93570 | -118.38746 | 122 ft | 12 kts | 81° |
| 2026-04-22 22:43 | 33.93581 | -118.38654 | 120 ft | 10 kts | 82° |
| 2026-04-22 22:44 | 33.93588 | -118.38573 | 122 ft | 9 kts | 85° |
| 2026-04-22 22:44 | 33.93592 | -118.38499 | 122 ft | 8 kts | 90° |
| 2026-04-22 22:44 | 33.93592 | -118.38456 | 122 ft | 0 kts | 89° |
| 2026-04-22 22:45 | 33.93592 | -118.38455 | 122 ft | 1 kts | 89° |
| 2026-04-22 22:45 | 33.93600 | -118.38379 | 122 ft | 14 kts | 81° |
| 2026-04-22 22:45 | 33.93611 | -118.38309 | 119 ft | 6 kts | 69° |
| 2026-04-22 22:46 | 33.93635 | -118.38282 | 122 ft | 5 kts | 29° |
| 2026-04-22 22:46 | 33.93699 | -118.38281 | 122 ft | 10 kts | 354° |
| 2026-04-22 22:46 | 33.93731 | -118.38332 | 120 ft | 8 kts | 268° |
| 2026-04-22 22:46 | 33.93728 | -118.38362 | 122 ft | 0 kts | 263° |
| 2026-04-22 22:47 | 33.93723 | -118.38412 | 120 ft | 27 kts | 264° |
| 2026-04-22 22:47 | 33.93656 | -118.39063 | 122 ft | 121 kts | 263° |
| 2026-04-22 22:47 | 33.93539 | -118.40225 | 360 ft | 148 kts | 262° |
| 2026-04-22 22:47 | 33.93412 | -118.41547 | 769 ft | 172 kts | 263° |
| 2026-04-22 22:48 | 33.93253 | -118.43098 | 1133 ft | 203 kts | 262° |
| 2026-04-22 22:48 | 33.93054 | -118.44914 | 1630 ft | 229 kts | 263° |
| 2026-04-22 22:48 | 33.92951 | -118.46886 | 2383 ft | 236 kts | 269° |
| 2026-04-22 22:48 | 33.92900 | -118.48862 | 3282 ft | 244 kts | 268° |
| 2026-04-22 22:49 | 33.92761 | -118.50936 | 4072 ft | 253 kts | 264° |
| 2026-04-22 22:49 | 33.92566 | -118.53060 | 5032 ft | 254 kts | 266° |
| 2026-04-22 22:49 | 33.92409 | -118.55188 | 5961 ft | 259 kts | 266° |
| 2026-04-22 22:49 | 33.92236 | -118.57364 | 6821 ft | 261 kts | 266° |
| 2026-04-22 22:50 | 33.92050 | -118.59540 | 7820 ft | 261 kts | 266° |
| 2026-04-22 22:50 | 33.91866 | -118.61728 | 8788 ft | 265 kts | 266° |
| 2026-04-22 22:50 | 33.91765 | -118.63947 | 9691 ft | 267 kts | 271° |
| 2026-04-22 22:50 | 33.91776 | -118.66196 | 10375 ft | 276 kts | 271° |
| 2026-04-22 22:51 | 33.91767 | -118.68620 | 10508 ft | 303 kts | 270° |
| 2026-04-22 22:51 | 33.91748 | -118.71266 | 10582 ft | 328 kts | 270° |
| 2026-04-22 22:51 | 33.91736 | -118.74011 | 11345 ft | 326 kts | 270° |
| 2026-04-22 22:51 | 33.91728 | -118.76743 | 12092 ft | 327 kts | 270° |
| 2026-04-22 22:52 | 33.91718 | -118.79489 | 12798 ft | 329 kts | 270° |
| 2026-04-22 22:52 | 33.91701 | -118.82243 | 13524 ft | 330 kts | 270° |
| 2026-04-22 22:52 | 33.91746 | -118.84981 | 14146 ft | 332 kts | 272° |
| 2026-04-22 22:52 | 33.91840 | -118.87760 | 14781 ft | 332 kts | 272° |
| 2026-04-22 22:53 | 33.91918 | -118.90549 | 15401 ft | 334 kts | 272° |
| 2026-04-22 22:53 | 33.91995 | -118.93347 | 16056 ft | 335 kts | 272° |
| 2026-04-22 22:53 | 33.92079 | -118.96150 | 16721 ft | 336 kts | 272° |
| 2026-04-22 22:53 | 33.92267 | -118.98949 | 17420 ft | 336 kts | 278° |
| 2026-04-22 22:54 | 33.92815 | -119.01693 | 18103 ft | 339 kts | 285° |
| 2026-04-22 22:54 | 33.93703 | -119.04335 | 18752 ft | 343 kts | 293° |
| 2026-04-22 22:54 | 33.94914 | -119.06839 | 19340 ft | 349 kts | 298° |
| 2026-04-22 22:54 | 33.95773 | -119.08478 | 19713 ft | 351 kts | 298° |
| 2026-04-22 22:55 | 33.97062 | -119.10990 | 20301 ft | 354 kts | 297° |
| 2026-04-22 22:55 | 33.98357 | -119.13526 | 20880 ft | 358 kts | 297° |
| 2026-04-22 22:55 | 34.01368 | -119.18431 | 22014 ft | 372 kts | 307° |
| 2026-04-22 22:56 | 34.03297 | -119.20569 | 22640 ft | 380 kts | 314° |
| 2026-04-22 22:56 | 34.05455 | -119.22463 | 23258 ft | 386 kts | 317° |
| 2026-04-22 22:56 | 34.07660 | -119.24346 | 23805 ft | 390 kts | 317° |
| 2026-04-22 22:56 | 34.09869 | -119.26259 | 24239 ft | 393 kts | 317° |
| 2026-04-22 22:57 | 34.12097 | -119.28183 | 24730 ft | 395 kts | 317° |
| 2026-04-22 22:57 | 34.14350 | -119.30114 | 25220 ft | 398 kts | 317° |
| 2026-04-22 22:57 | 34.16611 | -119.32058 | 25703 ft | 401 kts | 317° |
| 2026-04-22 22:57 | 34.18890 | -119.34026 | 26183 ft | 403 kts | 317° |
| 2026-04-22 22:58 | 34.21121 | -119.36018 | 26647 ft | 403 kts | 314° |
| 2026-04-22 22:58 | 34.23148 | -119.38314 | 27202 ft | 398 kts | 308° |
| 2026-04-22 22:58 | 34.25055 | -119.40758 | 27645 ft | 400 kts | 307° |
| 2026-04-22 22:58 | 34.27003 | -119.43189 | 28086 ft | 406 kts | 309° |
| 2026-04-22 22:59 | 34.29114 | -119.45502 | 28546 ft | 411 kts | 312° |
| 2026-04-22 22:59 | 34.31256 | -119.47801 | 28980 ft | 413 kts | 311° |
| 2026-04-22 22:59 | 34.33342 | -119.50205 | 29410 ft | 415 kts | 309° |
| 2026-04-22 22:59 | 34.35421 | -119.52655 | 29834 ft | 418 kts | 310° |
| 2026-04-22 23:00 | 34.37551 | -119.55082 | 30245 ft | 422 kts | 311° |
| 2026-04-22 23:00 | 34.39718 | -119.57506 | 30646 ft | 424 kts | 310° |
| 2026-04-22 23:00 | 34.41876 | -119.59964 | 31028 ft | 426 kts | 310° |
| 2026-04-22 23:00 | 34.44019 | -119.62437 | 31589 ft | 423 kts | 310° |
| 2026-04-22 23:01 | 34.46127 | -119.64849 | 32162 ft | 421 kts | 310° |
| 2026-04-22 23:01 | 34.48257 | -119.67275 | 32678 ft | 420 kts | 309° |
| 2026-04-22 23:01 | 34.50378 | -119.69703 | 33227 ft | 418 kts | 309° |
| 2026-04-22 23:01 | 34.52490 | -119.72127 | 33812 ft | 416 kts | 309° |
| 2026-04-22 23:02 | 34.54584 | -119.74532 | 34419 ft | 413 kts | 309° |
| 2026-04-22 23:02 | 34.56664 | -119.76917 | 34965 ft | 410 kts | 309° |
| 2026-04-22 23:02 | 34.58729 | -119.79284 | 35512 ft | 407 kts | 308° |
| 2026-04-22 23:02 | 34.60767 | -119.81621 | 36064 ft | 401 kts | 308° |
| 2026-04-22 23:03 | 34.64906 | -119.86411 | 36109 ft | 422 kts | 308° |
| 2026-04-22 23:03 | 34.69272 | -119.91426 | 36122 ft | 441 kts | 308° |
| 2026-04-22 23:04 | 34.73802 | -119.96658 | 36146 ft | 457 kts | 309° |
| 2026-04-22 23:04 | 34.78452 | -120.02021 | 36144 ft | 463 kts | 309° |
| 2026-04-22 23:05 | 34.83118 | -120.07431 | 36166 ft | 464 kts | 309° |
| 2026-04-22 23:05 | 34.87765 | -120.12814 | 36160 ft | 463 kts | 309° |
| 2026-04-22 23:06 | 34.92429 | -120.18235 | 36173 ft | 462 kts | 309° |
| 2026-04-22 23:06 | 34.97070 | -120.23629 | 36176 ft | 461 kts | 309° |
| 2026-04-22 23:07 | 35.01707 | -120.29039 | 36176 ft | 462 kts | 309° |
| 2026-04-22 23:07 | 35.06360 | -120.34467 | 36178 ft | 462 kts | 309° |
| 2026-04-22 23:08 | 35.11001 | -120.39782 | 36179 ft | 460 kts | 309° |
| 2026-04-22 23:08 | 35.15739 | -120.45078 | 36194 ft | 462 kts | 309° |
| 2026-04-22 23:09 | 35.20463 | -120.50380 | 36196 ft | 460 kts | 310° |
| 2026-04-22 23:09 | 35.25200 | -120.55696 | 36188 ft | 463 kts | 309° |
| 2026-04-22 23:10 | 35.29933 | -120.61021 | 36195 ft | 462 kts | 309° |
| 2026-04-22 23:10 | 35.34659 | -120.66347 | 36200 ft | 462 kts | 309° |
| 2026-04-22 23:11 | 35.39386 | -120.71680 | 36202 ft | 462 kts | 309° |
| 2026-04-22 23:11 | 35.44078 | -120.76985 | 36204 ft | 461 kts | 309° |
| 2026-04-22 23:12 | 35.48825 | -120.82255 | 36202 ft | 464 kts | 313° |
| 2026-04-22 23:12 | 35.54022 | -120.87055 | 36199 ft | 467 kts | 314° |
| 2026-04-22 23:13 | 35.59189 | -120.91889 | 36205 ft | 466 kts | 315° |
| 2026-04-22 23:13 | 35.64369 | -120.96674 | 36198 ft | 466 kts | 315° |
| 2026-04-22 23:14 | 35.69540 | -121.01511 | 36208 ft | 467 kts | 314° |
| 2026-04-22 23:14 | 35.74706 | -121.06315 | 36227 ft | 467 kts | 315° |
| 2026-04-22 23:15 | 35.79860 | -121.11136 | 36214 ft | 464 kts | 314° |
| 2026-04-22 23:15 | 35.85012 | -121.15957 | 36209 ft | 465 kts | 314° |
| 2026-04-22 23:16 | 35.90167 | -121.20788 | 36211 ft | 465 kts | 314° |
| 2026-04-22 23:16 | 35.95307 | -121.25612 | 36203 ft | 463 kts | 314° |
| 2026-04-22 23:17 | 36.00353 | -121.30347 | 35540 ft | 439 kts | 314° |
| 2026-04-22 23:17 | 36.02734 | -121.32581 | 34971 ft | 421 kts | 314° |
| 2026-04-22 23:17 | 36.05015 | -121.34736 | 34427 ft | 405 kts | 313° |
| 2026-04-22 23:18 | 36.07249 | -121.36791 | 33866 ft | 399 kts | 316° |
| 2026-04-22 23:18 | 36.09597 | -121.38613 | 33352 ft | 399 kts | 318° |
| 2026-04-22 23:18 | 36.11965 | -121.40458 | 32827 ft | 406 kts | 318° |
| 2026-04-22 23:18 | 36.14361 | -121.42342 | 32291 ft | 411 kts | 318° |
| 2026-04-22 23:19 | 36.16798 | -121.44239 | 31734 ft | 413 kts | 318° |
| 2026-04-22 23:19 | 36.19234 | -121.46133 | 31219 ft | 414 kts | 319° |
| 2026-04-22 23:19 | 36.21664 | -121.48040 | 30658 ft | 421 kts | 319° |
| 2026-04-22 23:19 | 36.24137 | -121.49970 | 30051 ft | 417 kts | 319° |
| 2026-04-22 23:20 | 36.26577 | -121.51867 | 29501 ft | 412 kts | 319° |
| 2026-04-22 23:20 | 36.28989 | -121.53752 | 28966 ft | 409 kts | 319° |
| 2026-04-22 23:20 | 36.31354 | -121.55631 | 28454 ft | 403 kts | 319° |
| 2026-04-22 23:20 | 36.33741 | -121.57513 | 27888 ft | 406 kts | 320° |
| 2026-04-22 23:21 | 36.36128 | -121.59354 | 27379 ft | 403 kts | 320° |
| 2026-04-22 23:21 | 36.38484 | -121.61204 | 26837 ft | 398 kts | 319° |
| 2026-04-22 23:21 | 36.40813 | -121.63059 | 26313 ft | 397 kts | 320° |
| 2026-04-22 23:21 | 36.43133 | -121.64883 | 25805 ft | 392 kts | 320° |
| 2026-04-22 23:22 | 36.45429 | -121.66671 | 25282 ft | 384 kts | 320° |
| 2026-04-22 23:22 | 36.47630 | -121.68396 | 24787 ft | 366 kts | 320° |
| 2026-04-22 23:22 | 36.49742 | -121.70068 | 24322 ft | 355 kts | 320° |
| 2026-04-22 23:22 | 36.51811 | -121.71716 | 23854 ft | 351 kts | 320° |
| 2026-04-22 23:23 | 36.53868 | -121.73346 | 23339 ft | 349 kts | 320° |
| 2026-04-22 23:23 | 36.55917 | -121.74960 | 22911 ft | 349 kts | 321° |
| 2026-04-22 23:23 | 36.57948 | -121.76563 | 22451 ft | 350 kts | 321° |
| 2026-04-22 23:23 | 36.60001 | -121.78191 | 21999 ft | 349 kts | 321° |
| 2026-04-22 23:24 | 36.62044 | -121.79810 | 21529 ft | 347 kts | 321° |
| 2026-04-22 23:24 | 36.64077 | -121.81420 | 21070 ft | 345 kts | 321° |
| 2026-04-22 23:24 | 36.66099 | -121.83024 | 20605 ft | 343 kts | 321° |
| 2026-04-22 23:24 | 36.68105 | -121.84617 | 20155 ft | 341 kts | 322° |
| 2026-04-22 23:25 | 36.70101 | -121.86201 | 19711 ft | 339 kts | 322° |
| 2026-04-22 23:25 | 36.72092 | -121.87784 | 19098 ft | 341 kts | 322° |
| 2026-04-22 23:25 | 36.74140 | -121.89244 | 18591 ft | 340 kts | 330° |
| 2026-04-22 23:25 | 36.76424 | -121.90067 | 18140 ft | 342 kts | 341° |
| 2026-04-22 23:26 | 36.78738 | -121.90693 | 17686 ft | 340 kts | 341° |
| 2026-04-22 23:26 | 36.81043 | -121.91337 | 17234 ft | 338 kts | 341° |
| 2026-04-22 23:26 | 36.83324 | -121.91984 | 16787 ft | 336 kts | 341° |
| 2026-04-22 23:26 | 36.85569 | -121.92608 | 16344 ft | 334 kts | 342° |
| 2026-04-22 23:27 | 36.87855 | -121.93240 | 15901 ft | 331 kts | 342° |
| 2026-04-22 23:27 | 36.90066 | -121.93860 | 15470 ft | 329 kts | 342° |
| 2026-04-22 23:27 | 36.92287 | -121.94485 | 15032 ft | 326 kts | 342° |
| 2026-04-22 23:27 | 36.94497 | -121.95104 | 14602 ft | 324 kts | 342° |
| 2026-04-22 23:28 | 36.96643 | -121.95868 | 14178 ft | 319 kts | 338° |
| 2026-04-22 23:28 | 36.98757 | -121.96709 | 13727 ft | 318 kts | 339° |
| 2026-04-22 23:28 | 37.00866 | -121.97526 | 13292 ft | 316 kts | 339° |
| 2026-04-22 23:28 | 37.02965 | -121.98333 | 12889 ft | 316 kts | 339° |
| 2026-04-22 23:29 | 37.05069 | -121.99151 | 12441 ft | 320 kts | 340° |
| 2026-04-22 23:29 | 37.07186 | -121.99984 | 12046 ft | 316 kts | 340° |
| 2026-04-22 23:29 | 37.09278 | -122.00804 | 11627 ft | 314 kts | 340° |
| 2026-04-22 23:29 | 37.11355 | -122.01614 | 11217 ft | 313 kts | 340° |
| 2026-04-22 23:30 | 37.13429 | -122.02423 | 10802 ft | 312 kts | 340° |
| 2026-04-22 23:30 | 37.15474 | -122.03213 | 10403 ft | 300 kts | 341° |
| 2026-04-22 23:30 | 37.17426 | -122.03984 | 9981 ft | 287 kts | 340° |
| 2026-04-22 23:30 | 37.19268 | -122.04716 | 9606 ft | 277 kts | 341° |
| 2026-04-22 23:31 | 37.21090 | -122.05429 | 9232 ft | 272 kts | 341° |
| 2026-04-22 23:31 | 37.22898 | -122.06129 | 8862 ft | 272 kts | 341° |
| 2026-04-22 23:31 | 37.24706 | -122.06837 | 8519 ft | 272 kts | 341° |
| 2026-04-22 23:31 | 37.26512 | -122.07551 | 8161 ft | 267 kts | 341° |
| 2026-04-22 23:32 | 37.28259 | -122.08238 | 7811 ft | 260 kts | 341° |
| 2026-04-22 23:32 | 37.29985 | -122.08914 | 7466 ft | 260 kts | 341° |
| 2026-04-22 23:32 | 37.31717 | -122.09596 | 7115 ft | 261 kts | 341° |
| 2026-04-22 23:32 | 37.33451 | -122.10282 | 6783 ft | 262 kts | 342° |
| 2026-04-22 23:33 | 37.35198 | -122.10969 | 6425 ft | 263 kts | 342° |
| 2026-04-22 23:33 | 37.36945 | -122.11659 | 6073 ft | 262 kts | 342° |
| 2026-04-22 23:33 | 37.38701 | -122.12208 | 5800 ft | 255 kts | 348° |
| 2026-04-22 23:33 | 37.40279 | -122.12591 | 5562 ft | 213 kts | 349° |
| 2026-04-22 23:34 | 37.41687 | -122.12942 | 5147 ft | 195 kts | 346° |
| 2026-04-22 23:34 | 37.42933 | -122.13333 | 4705 ft | 178 kts | 345° |
| 2026-04-22 23:34 | 37.44067 | -122.13683 | 4472 ft | 160 kts | 345° |
| 2026-04-22 23:34 | 37.45115 | -122.14089 | 4187 ft | 155 kts | 340° |
| 2026-04-22 23:35 | 37.46124 | -122.14505 | 3952 ft | 150 kts | 340° |
| 2026-04-22 23:35 | 37.47106 | -122.14879 | 3766 ft | 150 kts | 341° |
| 2026-04-22 23:35 | 37.48120 | -122.15278 | 3643 ft | 155 kts | 340° |
| 2026-04-22 23:35 | 37.49152 | -122.15680 | 3619 ft | 155 kts | 341° |
| 2026-04-22 23:36 | 37.50159 | -122.16058 | 3664 ft | 151 kts | 341° |
| 2026-04-22 23:36 | 37.51165 | -122.16404 | 3667 ft | 151 kts | 342° |
| 2026-04-22 23:36 | 37.52206 | -122.16809 | 3511 ft | 160 kts | 340° |
| 2026-04-22 23:36 | 37.53149 | -122.17584 | 3270 ft | 166 kts | 312° |
| 2026-04-22 23:37 | 37.53878 | -122.18671 | 3147 ft | 159 kts | 306° |
| 2026-04-22 23:37 | 37.54494 | -122.19811 | 2958 ft | 157 kts | 301° |
| 2026-04-22 23:37 | 37.55047 | -122.21001 | 2625 ft | 157 kts | 297° |
| 2026-04-22 23:37 | 37.55552 | -122.22189 | 2349 ft | 152 kts | 295° |
| 2026-04-22 23:38 | 37.56011 | -122.23396 | 2026 ft | 152 kts | 293° |
| 2026-04-22 23:38 | 37.56434 | -122.24599 | 1824 ft | 147 kts | 292° |
| 2026-04-22 23:38 | 37.56882 | -122.25697 | 1723 ft | 140 kts | 298° |
| 2026-04-22 23:38 | 37.57373 | -122.26751 | 1556 ft | 139 kts | 297° |
| 2026-04-22 23:39 | 37.57849 | -122.27805 | 1378 ft | 137 kts | 297° |
| 2026-04-22 23:39 | 37.58312 | -122.28836 | 1184 ft | 134 kts | 297° |
| 2026-04-22 23:39 | 37.58736 | -122.29873 | 962 ft | 134 kts | 295° |
| 2026-04-22 23:39 | 37.59159 | -122.30931 | 809 ft | 137 kts | 294° |
| 2026-04-22 23:40 | 37.59559 | -122.32028 | 648 ft | 138 kts | 294° |
| 2026-04-22 23:40 | 37.59990 | -122.33100 | 503 ft | 136 kts | 298° |
| 2026-04-22 23:40 | 37.60433 | -122.34147 | 333 ft | 135 kts | 299° |
| 2026-04-22 23:40 | 37.60884 | -122.35174 | 180 ft | 132 kts | 298° |
| 2026-04-22 23:41 | 37.61304 | -122.36173 | 38 ft | 123 kts | 298° |
| 2026-04-22 23:41 | 37.61654 | -122.37003 | 17 ft | 82 kts | 297° |
| 2026-04-22 23:41 | 37.61870 | -122.37515 | 15 ft | 59 kts | 298° |
| 2026-04-22 23:41 | 37.62043 | -122.37929 | 20 ft | 49 kts | 298° |
| 2026-04-22 23:42 | 37.62158 | -122.38215 | 19 ft | 17 kts | 295° |
| 2026-04-22 23:42 | 37.62136 | -122.38317 | 19 ft | 9 kts | 217° |
| 2026-04-22 23:42 | 37.62120 | -122.38389 | 18 ft | 13 kts | 285° |
| 2026-04-22 23:42 | 37.62172 | -122.38518 | 17 ft | 17 kts | 298° |
| 2026-04-22 23:43 | 37.62185 | -122.38614 | 15 ft | 11 kts | 242° |
| 2026-04-22 23:43 | 37.62179 | -122.38707 | 12 ft | 12 kts | 303° |
| 2026-04-22 23:43 | 37.62201 | -122.38793 | 10 ft | 10 kts | 239° |
| 2026-04-22 23:43 | 37.62152 | -122.38852 | 10 ft | 7 kts | 213° |
| 2026-04-22 23:44 | 37.62136 | -122.38884 | 12 ft | 2 kts | 251° |
| 2026-04-22 23:44 | 37.62133 | -122.38898 | 12 ft | 0 kts | 255° |